createdAt,value
2018-07-26T00:01:11.391Z,7.47
2018-07-26T00:03:39.724Z,7.27
2018-07-26T00:06:08.442Z,7.00
2018-07-26T00:08:36.835Z,7.40
2018-07-26T00:11:05.191Z,6.97
2018-07-26T00:13:33.580Z,7.13
2018-07-26T00:16:01.896Z,7.63
2018-07-26T00:18:30.218Z,7.60
2018-07-26T00:20:58.536Z,7.20
2018-07-26T00:23:27.295Z,6.93
2018-07-26T00:25:55.615Z,7.30
2018-07-26T00:28:23.947Z,7.33
2018-07-26T00:30:52.341Z,7.27
2018-07-26T00:33:20.671Z,7.40
2018-07-26T00:35:49.568Z,7.40
2018-07-26T00:38:18.015Z,6.87
2018-07-26T00:40:46.763Z,7.10
2018-07-26T00:43:15.138Z,7.10
2018-07-26T00:45:43.354Z,6.90
2018-07-26T00:48:11.729Z,6.97
2018-07-26T00:50:40.076Z,6.93
2018-07-26T00:53:08.426Z,7.13
2018-07-26T00:55:36.806Z,7.33
2018-07-26T00:58:05.675Z,7.00
2018-07-26T01:00:33.955Z,6.50
2018-07-26T01:03:02.496Z,6.90
2018-07-26T01:05:30.860Z,6.43
2018-07-26T01:07:59.210Z,6.67
2018-07-26T01:10:27.587Z,6.27
2018-07-26T01:12:55.675Z,7.03
2018-07-26T01:15:24.078Z,6.30
2018-07-26T01:17:52.415Z,6.60
2018-07-26T01:20:20.732Z,6.93
2018-07-26T01:22:49.073Z,6.63
2018-07-26T01:25:17.378Z,6.70
2018-07-26T01:27:45.931Z,6.17
2018-07-26T01:30:14.286Z,6.53
2018-07-26T01:32:42.631Z,7.07
2018-07-26T01:35:10.983Z,6.60
2018-07-26T01:37:39.518Z,6.90
2018-07-26T01:40:07.870Z,6.13
2018-07-26T01:42:47.640Z,6.97
2018-07-26T01:45:16.055Z,6.47
2018-07-26T01:47:44.467Z,6.47
2018-07-26T01:50:12.806Z,6.80
2018-07-26T01:52:41.186Z,7.00
2018-07-26T01:55:09.731Z,6.20
2018-07-26T01:57:38.057Z,7.50
2018-07-26T02:00:06.354Z,6.83
2018-07-26T02:02:34.739Z,6.87
2018-07-26T02:05:03.078Z,6.80
2018-07-26T02:07:31.393Z,7.53
2018-07-26T02:09:59.756Z,7.20
2018-07-26T02:12:28.373Z,7.10
2018-07-26T02:14:56.717Z,7.70
2018-07-26T02:17:25.058Z,7.00
2018-07-26T02:19:53.500Z,8.00
2018-07-26T02:22:21.879Z,7.23
2018-07-26T02:24:50.276Z,7.63
2018-07-26T02:27:18.714Z,8.03
2018-07-26T02:29:47.655Z,8.23
2018-07-26T02:32:15.990Z,8.13
2018-07-26T02:34:50.863Z,8.30
2018-07-26T02:37:19.217Z,8.10
2018-07-26T02:39:47.558Z,8.73
2018-07-26T02:42:15.929Z,8.17
2018-07-26T02:44:44.323Z,8.13
2018-07-26T02:47:12.624Z,8.40
2018-07-26T02:49:40.945Z,8.17
2018-07-26T02:52:09.286Z,8.57
2018-07-26T02:54:37.649Z,8.03
2018-07-26T02:57:06.189Z,8.03
2018-07-26T02:59:34.524Z,9.07
2018-07-26T03:02:02.962Z,7.40
2018-07-26T03:04:31.285Z,7.50
2018-07-26T03:06:59.627Z,7.67
2018-07-26T03:09:28.053Z,8.23
2018-07-26T03:11:56.402Z,8.67
2018-07-26T03:14:25.008Z,8.03
2018-07-26T03:16:53.374Z,7.70
2018-07-26T03:19:21.751Z,8.53
2018-07-26T03:21:50.148Z,8.10
2018-07-26T03:24:18.501Z,8.13
2018-07-26T03:26:46.910Z,8.23
2018-07-26T03:29:15.315Z,8.70
2018-07-26T03:31:43.675Z,8.63
2018-07-26T03:34:12.032Z,7.80
2018-07-26T03:36:40.397Z,8.80
2018-07-26T03:39:09.617Z,8.80
2018-07-26T03:41:38.142Z,8.40
2018-07-26T03:44:06.556Z,9.40
2018-07-26T03:46:34.940Z,8.70
2018-07-26T03:49:03.287Z,9.53
2018-07-26T03:51:31.671Z,8.70
2018-07-26T03:53:59.748Z,9.37
2018-07-26T03:56:28.043Z,9.20
2018-07-26T03:58:56.422Z,9.33
2018-07-26T04:01:24.915Z,10.43
2018-07-26T04:03:53.274Z,8.80
2018-07-26T04:06:21.898Z,10.50
2018-07-26T04:08:50.286Z,9.57
2018-07-26T04:11:18.755Z,10.57
2018-07-26T04:13:47.171Z,10.23
2018-07-26T04:16:15.521Z,9.83
2018-07-26T04:18:43.867Z,10.33
2018-07-26T04:21:12.245Z,10.20
2018-07-26T04:23:40.588Z,11.10
2018-07-26T04:26:08.948Z,9.93
2018-07-26T04:28:37.326Z,10.97
2018-07-26T04:31:05.767Z,9.67
2018-07-26T04:33:34.165Z,10.47
2018-07-26T04:36:02.517Z,10.93
2018-07-26T04:38:30.871Z,10.00
2018-07-26T04:40:59.286Z,10.23
2018-07-26T04:43:27.615Z,10.50
2018-07-26T04:45:55.994Z,10.03
2018-07-26T04:48:24.396Z,10.97
2018-07-26T04:50:52.817Z,10.70
2018-07-26T04:53:21.175Z,10.27
2018-07-26T04:55:49.488Z,10.63
2018-07-26T04:58:18.195Z,9.60
2018-07-26T05:00:46.502Z,10.33
2018-07-26T05:03:14.845Z,9.97
2018-07-26T05:05:43.240Z,9.67
2018-07-26T05:08:11.633Z,9.87
2018-07-26T05:10:47.678Z,9.77
2018-07-26T05:13:16.067Z,9.47
2018-07-26T05:15:44.433Z,9.40
2018-07-26T05:18:16.876Z,10.07
2018-07-26T05:20:45.229Z,9.67
2018-07-26T05:23:13.544Z,9.87
2018-07-26T05:25:42.470Z,9.90
2018-07-26T05:28:10.795Z,9.40
2018-07-26T05:30:39.210Z,9.20
2018-07-26T05:33:07.578Z,9.30
2018-07-26T05:35:35.923Z,9.43
2018-07-26T05:38:04.626Z,9.80
2018-07-26T05:40:33.553Z,9.77
2018-07-26T05:43:01.843Z,9.70
2018-07-26T05:45:31.525Z,9.47
2018-07-26T05:48:01.609Z,9.23
2018-07-26T05:50:29.966Z,9.27
2018-07-26T05:52:58.301Z,9.23
2018-07-26T05:55:26.678Z,9.47
2018-07-26T05:57:55.087Z,9.10
2018-07-26T06:00:23.449Z,9.93
2018-07-26T06:02:51.795Z,9.87
2018-07-26T06:05:20.182Z,9.57
2018-07-26T06:07:48.594Z,9.77
2018-07-26T06:10:16.687Z,9.83
2018-07-26T06:12:45.015Z,8.77
2018-07-26T06:15:13.480Z,9.57
2018-07-26T06:17:42.104Z,9.87
2018-07-26T06:20:11.979Z,9.97
2018-07-26T06:22:40.730Z,8.83
2018-07-26T06:25:09.756Z,9.60
2018-07-26T06:27:38.146Z,10.17
2018-07-26T06:30:08.823Z,9.53
2018-07-26T06:32:37.159Z,9.53
2018-07-26T06:35:05.955Z,9.77
2018-07-26T06:37:34.311Z,10.40
2018-07-26T06:40:02.862Z,10.60
2018-07-26T06:42:31.222Z,10.10
2018-07-26T06:44:59.574Z,9.73
2018-07-26T06:47:28.424Z,10.37
2018-07-26T06:49:56.831Z,11.07
2018-07-26T06:52:25.245Z,10.73
2018-07-26T06:54:53.738Z,10.20
2018-07-26T06:57:22.089Z,10.20
2018-07-26T06:59:50.526Z,10.53
2018-07-26T07:02:18.806Z,10.77
2018-07-26T07:04:47.155Z,11.00
2018-07-26T07:07:15.490Z,11.50
2018-07-26T07:09:43.854Z,10.40
2018-07-26T07:12:12.244Z,10.27
2018-07-26T07:14:40.619Z,10.93
2018-07-26T07:17:09.067Z,11.33
2018-07-26T07:19:37.222Z,12.03
2018-07-26T07:22:05.584Z,10.57
2018-07-26T07:24:34.134Z,10.87
2018-07-26T07:27:02.466Z,10.63
2018-07-26T07:29:30.780Z,10.57
2018-07-26T07:31:59.129Z,11.07
2018-07-26T07:34:27.204Z,10.57
2018-07-26T07:36:56.301Z,10.97
2018-07-26T07:39:24.640Z,11.00
2018-07-26T07:41:52.978Z,10.30
2018-07-26T07:44:21.356Z,10.07
2018-07-26T07:46:49.702Z,11.07
2018-07-26T07:49:18.092Z,10.07
2018-07-26T07:51:46.454Z,10.40
2018-07-26T07:54:14.844Z,10.30
2018-07-26T07:56:42.905Z,9.80
2018-07-26T07:59:11.265Z,9.57
2018-07-26T08:01:39.616Z,9.77
2018-07-26T08:04:07.938Z,9.80
2018-07-26T08:06:36.291Z,10.20
2018-07-26T08:09:07.855Z,9.30
2018-07-26T08:11:36.188Z,9.60
2018-07-26T08:14:05.019Z,9.03
2018-07-26T08:16:34.104Z,8.63
2018-07-26T08:19:02.431Z,8.97
2018-07-26T08:21:30.514Z,8.37
2018-07-26T08:23:59.540Z,8.60
2018-07-26T08:26:27.889Z,8.20
2018-07-26T08:28:56.326Z,9.10
2018-07-26T08:31:24.690Z,7.87
2018-07-26T08:33:53.074Z,8.97
2018-07-26T08:36:21.446Z,8.70
2018-07-26T08:38:49.767Z,8.97
2018-07-26T08:41:18.158Z,8.53
2018-07-26T08:43:46.584Z,8.40
2018-07-26T08:46:14.936Z,8.43
2018-07-26T08:48:43.306Z,8.40
2018-07-26T08:51:11.918Z,9.03
2018-07-26T08:53:40.282Z,8.83
2018-07-26T08:56:08.650Z,9.27
2018-07-26T08:58:37.007Z,8.90
2018-07-26T09:01:05.802Z,8.30
2018-07-26T09:03:34.847Z,8.13
2018-07-26T09:06:03.272Z,8.10
2018-07-26T09:08:31.379Z,8.57
2018-07-26T09:11:00.663Z,8.00
2018-07-26T09:13:29.005Z,9.23
2018-07-26T09:15:57.466Z,9.30
2018-07-26T09:18:25.827Z,7.93
2018-07-26T09:20:54.212Z,8.70
2018-07-26T09:23:22.622Z,8.70
2018-07-26T09:25:51.019Z,8.47
2018-07-26T09:28:19.353Z,8.83
2018-07-26T09:30:48.138Z,8.97
2018-07-26T09:33:19.442Z,8.47
2018-07-26T09:35:47.859Z,7.97
2018-07-26T09:38:16.207Z,9.07
2018-07-26T09:40:44.620Z,8.40
2018-07-26T09:43:13.050Z,8.17
2018-07-26T09:45:41.388Z,9.03
2018-07-26T09:48:09.780Z,9.47
2018-07-26T09:50:38.156Z,9.47
2018-07-26T09:53:06.534Z,9.00
2018-07-26T09:55:34.886Z,7.93
2018-07-26T09:58:03.257Z,8.07
2018-07-26T10:00:36.862Z,7.77
2018-07-26T10:03:11.858Z,7.87
2018-07-26T10:05:40.253Z,7.73
2018-07-26T10:08:08.579Z,8.30
2018-07-26T10:10:36.960Z,8.70
2018-07-26T10:13:05.440Z,7.50
2018-07-26T10:15:33.777Z,8.40
2018-07-26T10:18:02.317Z,8.10
2018-07-26T10:20:30.627Z,7.37
2018-07-26T10:22:58.976Z,7.80
2018-07-26T10:25:27.912Z,7.97
2018-07-26T10:27:56.631Z,7.20
2018-07-26T10:30:25.071Z,6.23
2018-07-26T10:32:53.455Z,7.10
2018-07-26T10:35:21.784Z,7.23
2018-07-26T10:37:50.168Z,6.70
2018-07-26T10:40:18.547Z,6.80
2018-07-26T10:42:46.900Z,6.37
2018-07-26T10:45:15.303Z,6.43
2018-07-26T10:47:43.692Z,6.83
2018-07-26T10:50:12.097Z,6.40
2018-07-26T10:52:40.431Z,5.93
2018-07-26T10:55:09.190Z,6.50
2018-07-26T10:57:38.383Z,5.57
2018-07-26T11:00:08.412Z,6.20
2018-07-26T11:02:37.399Z,5.87
2018-07-26T11:05:07.574Z,5.80
2018-07-26T11:07:35.973Z,5.50
2018-07-26T11:10:05.584Z,5.80
2018-07-26T11:12:34.070Z,5.37
2018-07-26T11:15:23.091Z,5.10
2018-07-26T11:17:51.477Z,5.57
2018-07-26T11:20:20.002Z,5.70
2018-07-26T11:22:48.368Z,4.83
2018-07-26T11:25:16.429Z,3.97
2018-07-26T11:27:44.773Z,4.37
2018-07-26T11:30:13.264Z,4.33
2018-07-26T11:32:41.757Z,4.50
2018-07-26T11:35:11.726Z,4.77
2018-07-26T11:37:40.816Z,4.13
2018-07-26T11:40:09.165Z,4.73
2018-07-26T11:42:37.537Z,4.90
2018-07-26T11:45:06.965Z,4.77
2018-07-26T11:47:36.579Z,4.63
2018-07-26T11:50:05.973Z,4.63
2018-07-26T11:52:34.309Z,4.23
2018-07-26T11:55:02.665Z,4.53
2018-07-26T11:57:30.993Z,4.23
2018-07-26T11:59:59.436Z,4.60
2018-07-26T12:02:27.756Z,4.57
2018-07-26T12:04:56.213Z,4.30
2018-07-26T12:07:24.560Z,4.93
2018-07-26T12:09:52.918Z,4.37
2018-07-26T12:12:22.181Z,4.23
2018-07-26T12:14:53.095Z,4.33
2018-07-26T12:17:24.373Z,4.27
2018-07-26T12:20:05.170Z,4.33
2018-07-26T12:22:33.540Z,4.00
2018-07-26T12:25:01.651Z,4.37
2018-07-26T12:27:30.056Z,4.33
2018-07-26T12:29:58.424Z,4.30
2018-07-26T12:32:26.745Z,4.47
2018-07-26T12:34:55.095Z,4.40
2018-07-26T12:37:23.494Z,3.80
2018-07-26T12:39:52.217Z,4.37
2018-07-26T12:42:20.909Z,4.47
2018-07-26T12:44:49.326Z,4.20
2018-07-26T12:47:17.711Z,4.77
2018-07-26T12:49:46.054Z,4.03
2018-07-26T12:52:17.862Z,4.60
2018-07-26T12:54:46.324Z,4.27
2018-07-26T12:57:14.668Z,4.13
2018-07-26T12:59:43.015Z,3.90
2018-07-26T13:02:11.406Z,4.30
2018-07-26T13:04:39.769Z,3.97
2018-07-26T13:07:08.448Z,3.97
2018-07-26T13:09:36.756Z,3.77
2018-07-26T13:12:05.114Z,4.40
2018-07-26T13:14:33.599Z,4.10
2018-07-26T13:17:01.963Z,4.30
2018-07-26T13:19:30.291Z,3.90
2018-07-26T13:21:58.953Z,4.00
2018-07-26T13:24:27.277Z,3.90
2018-07-26T13:26:55.757Z,3.97
2018-07-26T13:29:24.067Z,3.70
2018-07-26T13:31:52.162Z,4.17
2018-07-26T13:34:20.274Z,4.27
2018-07-26T13:36:48.574Z,3.93
2018-07-26T13:39:16.951Z,4.40
2018-07-26T13:41:45.290Z,4.43
2018-07-26T13:44:13.669Z,3.70
2018-07-26T13:46:42.030Z,4.40
2018-07-26T13:49:10.391Z,4.43
2018-07-26T13:51:38.782Z,4.00
2018-07-26T13:54:07.115Z,3.93
2018-07-26T13:56:35.454Z,4.43
2018-07-26T13:59:03.847Z,3.93
2018-07-26T14:01:32.316Z,4.17
2018-07-26T14:04:00.712Z,4.87
2018-07-26T14:06:29.059Z,4.13
2018-07-26T14:08:57.420Z,4.10
2018-07-26T14:11:25.773Z,4.00
2018-07-26T14:13:54.147Z,4.20
2018-07-26T14:16:22.553Z,4.50
2018-07-26T14:18:50.938Z,4.20
2018-07-26T14:21:19.265Z,4.30
2018-07-26T14:23:52.100Z,4.40
2018-07-26T14:26:20.415Z,4.73
2018-07-26T14:28:48.999Z,4.90
2018-07-26T14:31:17.459Z,5.10
2018-07-26T14:33:45.816Z,5.00
2018-07-26T14:36:14.253Z,5.33
2018-07-26T14:38:43.493Z,4.90
2018-07-26T14:41:11.940Z,5.50
2018-07-26T14:43:40.309Z,4.70
2018-07-26T14:46:08.631Z,5.13
2018-07-26T14:48:37.988Z,5.10
2018-07-26T14:51:06.321Z,5.03
2018-07-26T14:53:34.739Z,4.57
2018-07-26T14:56:03.107Z,5.20
2018-07-26T14:58:31.462Z,5.27
2018-07-26T15:00:59.820Z,4.90
2018-07-26T15:03:28.288Z,5.03
2018-07-26T15:05:56.682Z,5.63
2018-07-26T15:08:25.204Z,5.43
2018-07-26T15:10:53.692Z,5.40
2018-07-26T15:13:22.177Z,5.63
2018-07-26T15:15:50.515Z,5.10
2018-07-26T15:18:18.898Z,5.97
2018-07-26T15:20:47.314Z,6.27
2018-07-26T15:23:15.726Z,5.90
2018-07-26T15:25:44.200Z,5.17
2018-07-26T15:28:13.124Z,5.00
2018-07-26T15:30:41.584Z,5.17
2018-07-26T15:33:10.039Z,5.10
2018-07-26T15:35:38.386Z,5.13
2018-07-26T15:38:06.769Z,5.17
2018-07-26T15:40:35.174Z,5.50
2018-07-26T15:43:03.583Z,5.50
2018-07-26T15:45:32.092Z,5.10
2018-07-26T15:48:00.717Z,4.80
2018-07-26T15:50:29.928Z,4.63
2018-07-26T15:52:58.664Z,5.07
2018-07-26T15:55:27.295Z,4.57
2018-07-26T15:57:55.793Z,4.80
2018-07-26T16:00:24.964Z,5.03
2018-07-26T16:02:53.363Z,4.63
2018-07-26T16:05:21.846Z,4.80
2018-07-26T16:07:50.353Z,4.90
2018-07-26T16:10:18.745Z,4.70
2018-07-26T16:12:46.916Z,4.70
2018-07-26T16:15:15.475Z,4.40
2018-07-26T16:17:44.035Z,4.80
2018-07-26T16:20:12.488Z,5.00
2018-07-26T16:22:40.895Z,6.03
2018-07-26T16:25:10.553Z,5.57
2018-07-26T16:27:42.421Z,5.50
2018-07-26T16:30:12.600Z,4.73
2018-07-26T16:32:46.739Z,7.47
2018-07-26T16:35:20.953Z,4.50
2018-07-26T16:37:49.423Z,9.63
2018-07-26T16:40:17.932Z,8.00
2018-07-26T16:42:46.334Z,5.43
2018-07-26T16:45:14.777Z,5.87
2018-07-26T16:47:43.351Z,8.40
2018-07-26T16:50:11.884Z,5.53
2018-07-26T16:52:40.363Z,5.97
2018-07-26T16:55:08.828Z,5.40
2018-07-26T16:57:37.057Z,5.23
2018-07-26T17:00:07.140Z,4.30
2018-07-26T17:02:35.666Z,4.90
2018-07-26T17:05:06.653Z,6.03
2018-07-26T17:07:35.447Z,5.53
2018-07-26T17:10:05.659Z,5.10
2018-07-26T17:12:34.207Z,4.80
2018-07-26T17:15:06.094Z,5.43
2018-07-26T17:17:34.554Z,5.23
2018-07-26T17:20:02.704Z,5.70
2018-07-26T17:22:31.216Z,5.63
2018-07-26T17:24:59.439Z,5.60
2018-07-26T17:27:28.255Z,5.80
2018-07-26T17:29:56.729Z,5.80
2018-07-26T17:32:25.283Z,5.93
2018-07-26T17:34:54.148Z,5.53
2018-07-26T17:37:23.224Z,6.60
2018-07-26T17:39:51.794Z,6.17
2018-07-26T17:42:20.242Z,8.90
2018-07-26T17:44:48.677Z,6.47
2018-07-26T17:47:17.165Z,6.30
2018-07-26T17:49:45.544Z,5.90
2018-07-26T17:52:14.051Z,6.20
2018-07-26T17:54:42.664Z,6.20
2018-07-26T17:57:11.075Z,6.47
2018-07-26T17:59:39.412Z,6.43
2018-07-26T18:02:07.786Z,6.73
2018-07-26T18:04:36.330Z,5.73
2018-07-26T18:07:04.753Z,7.37
2018-07-26T18:09:33.383Z,6.40
2018-07-26T18:12:01.882Z,6.67
2018-07-26T18:14:31.255Z,7.50
2018-07-26T18:16:59.744Z,6.60
2018-07-26T18:19:29.455Z,7.13
2018-07-26T18:21:58.149Z,9.70
2018-07-26T18:24:26.833Z,6.90
2018-07-26T18:26:55.352Z,6.07
2018-07-26T18:29:25.100Z,5.77
2018-07-26T18:31:54.411Z,6.17
2018-07-26T18:34:23.161Z,7.17
2018-07-26T18:36:51.736Z,7.40
2018-07-26T18:39:20.228Z,6.57
2018-07-26T18:41:48.652Z,7.00
2018-07-26T18:44:17.807Z,7.07
2018-07-26T18:46:47.919Z,8.13
2018-07-26T18:49:16.771Z,8.23
2018-07-26T18:51:53.768Z,8.23
2018-07-26T18:54:22.199Z,6.47
2018-07-26T18:56:50.655Z,6.50
2018-07-26T18:59:19.177Z,6.33
2018-07-26T19:01:48.198Z,5.53
2018-07-26T19:04:16.690Z,4.47
2018-07-26T19:06:44.928Z,4.23
2018-07-26T19:09:13.735Z,4.97
2018-07-26T19:11:42.625Z,5.13
2018-07-26T19:14:10.992Z,5.13
2018-07-26T19:16:39.345Z,5.67
2018-07-26T19:19:07.820Z,5.77
2018-07-26T19:21:36.234Z,6.23
2018-07-26T19:24:05.279Z,6.13
2018-07-26T19:26:33.722Z,6.47
2018-07-26T19:29:02.562Z,6.83
2018-07-26T19:31:31.096Z,8.03
2018-07-26T19:33:59.626Z,7.00
2018-07-26T19:36:28.005Z,8.20
2018-07-26T19:38:56.381Z,7.57
2018-07-26T19:41:24.872Z,8.33
2018-07-26T19:43:53.907Z,8.30
2018-07-26T19:46:22.622Z,8.50
2018-07-26T19:48:54.372Z,9.10
2018-07-26T19:51:22.767Z,9.80
2018-07-26T19:53:51.198Z,11.17
2018-07-26T19:56:20.567Z,9.20
2018-07-26T19:58:49.136Z,9.43
2018-07-26T20:01:17.704Z,10.80
2018-07-26T20:03:46.063Z,14.33
2018-07-26T20:06:14.490Z,11.90
2018-07-26T20:08:43.378Z,11.27
2018-07-26T20:11:11.807Z,10.90
2018-07-26T20:13:40.223Z,10.53
2018-07-26T20:16:08.682Z,10.47
2018-07-26T20:18:37.122Z,10.83
2018-07-26T20:21:05.578Z,11.00
2018-07-26T20:23:34.008Z,9.60
2018-07-26T20:26:03.174Z,9.87
2018-07-26T20:28:31.998Z,10.73
2018-07-26T20:31:00.110Z,11.30
2018-07-26T20:33:28.737Z,10.40
2018-07-26T20:35:57.089Z,10.57
2018-07-26T20:38:25.551Z,10.37
2018-07-26T20:40:54.267Z,10.50
2018-07-26T20:43:22.648Z,10.30
2018-07-26T20:45:50.998Z,11.00
2018-07-26T20:48:19.423Z,10.70
2018-07-26T20:50:47.765Z,10.77
2018-07-26T20:53:15.859Z,10.27
2018-07-26T20:55:44.207Z,11.13
2018-07-26T20:58:12.624Z,10.60
2018-07-26T21:00:41.116Z,10.97
2018-07-26T21:03:09.470Z,9.83
2018-07-26T21:05:37.872Z,10.73
2018-07-26T21:08:07.942Z,10.40
2018-07-26T21:10:36.306Z,10.83
2018-07-26T21:13:04.694Z,10.60
2018-07-26T21:15:33.390Z,10.70
2018-07-26T21:18:01.785Z,10.00
2018-07-26T21:20:30.195Z,10.77
2018-07-26T21:22:58.606Z,10.67
2018-07-26T21:25:26.987Z,10.17
2018-07-26T21:27:55.458Z,9.83
2018-07-26T21:30:23.912Z,9.33
2018-07-26T21:32:52.260Z,10.23
2018-07-26T21:35:20.603Z,9.73
2018-07-26T21:37:48.974Z,10.07
2018-07-26T21:40:17.307Z,10.30
2018-07-26T21:42:45.657Z,10.67
2018-07-26T21:45:13.987Z,11.03
2018-07-26T21:47:42.322Z,10.90
2018-07-26T21:50:10.701Z,10.50
2018-07-26T21:52:39.332Z,11.43
2018-07-26T21:55:07.764Z,11.27
2018-07-26T21:57:36.619Z,10.97
2018-07-26T22:00:08.649Z,11.20
2018-07-26T22:02:36.987Z,10.53
2018-07-26T22:05:05.651Z,11.03
2018-07-26T22:07:34.040Z,10.80
2018-07-26T22:10:02.408Z,10.60
2018-07-26T22:12:30.748Z,10.63
2018-07-26T22:14:59.188Z,11.53
2018-07-26T22:17:27.555Z,10.57
2018-07-26T22:19:56.460Z,11.77
2018-07-26T22:22:24.833Z,12.20
2018-07-26T22:24:53.271Z,11.53
2018-07-26T22:27:21.647Z,13.00
2018-07-26T22:29:50.505Z,12.50
2018-07-26T22:32:18.818Z,12.47
2018-07-26T22:34:47.144Z,13.10
2018-07-26T22:37:15.494Z,12.43
2018-07-26T22:39:43.821Z,12.67
2018-07-26T22:42:13.156Z,13.33
2018-07-26T22:44:41.487Z,13.83
2018-07-26T22:47:09.919Z,13.10
2018-07-26T22:49:38.294Z,12.30
2018-07-26T22:52:06.610Z,13.40
2018-07-26T22:54:34.929Z,13.40
2018-07-26T22:57:03.335Z,12.60
2018-07-26T22:59:31.642Z,13.03
2018-07-26T23:02:00.005Z,13.10
2018-07-26T23:04:28.098Z,12.83
2018-07-26T23:06:56.470Z,14.07
2018-07-26T23:09:24.796Z,13.80
2018-07-26T23:11:53.140Z,14.20
2018-07-26T23:14:21.469Z,13.57
2018-07-26T23:16:49.811Z,14.17
2018-07-26T23:19:18.148Z,14.97
2018-07-26T23:21:46.812Z,15.07
2018-07-26T23:24:15.215Z,15.17
2018-07-26T23:26:43.563Z,15.63
2018-07-26T23:29:12.167Z,14.63
2018-07-26T23:31:40.448Z,15.13
2018-07-26T23:34:08.823Z,16.17
2018-07-26T23:36:37.195Z,16.27
2018-07-26T23:39:07.460Z,16.07
2018-07-26T23:41:35.815Z,15.80
2018-07-26T23:44:04.173Z,17.37
2018-07-26T23:46:32.554Z,16.30
2018-07-26T23:49:00.930Z,16.70
2018-07-26T23:51:29.316Z,16.27
2018-07-26T23:53:57.845Z,15.90
2018-07-26T23:56:26.176Z,16.90
2018-07-26T23:58:54.650Z,16.70
